createdAt,value
2018-09-01T00:01:14.251Z,11.60
2018-09-01T00:03:42.784Z,11.60
2018-09-01T00:06:15.059Z,11.60
2018-09-01T00:08:43.638Z,11.60
2018-09-01T00:11:12.276Z,11.60
2018-09-01T00:13:44.674Z,11.70
2018-09-01T00:16:13.269Z,11.60
2018-09-01T00:18:45.546Z,11.60
2018-09-01T00:21:14.226Z,11.60
2018-09-01T00:23:46.387Z,11.60
2018-09-01T00:26:14.902Z,11.60
2018-09-01T00:28:43.426Z,11.60
2018-09-01T00:31:18.593Z,11.60
2018-09-01T00:33:47.168Z,11.70
2018-09-01T00:36:15.750Z,11.60
2018-09-01T00:38:52.602Z,11.60
2018-09-01T00:41:21.151Z,11.60
2018-09-01T00:43:49.724Z,11.70
2018-09-01T00:46:21.270Z,11.60
2018-09-01T00:48:49.784Z,11.70
2018-09-01T00:51:18.246Z,11.70
2018-09-01T00:53:50.744Z,11.60
2018-09-01T00:56:19.287Z,11.70
2018-09-01T00:58:51.721Z,11.60
2018-09-01T01:01:20.757Z,11.60
2018-09-01T01:03:52.490Z,11.60
2018-09-01T01:06:20.997Z,11.60
2018-09-01T01:08:53.444Z,11.60
2018-09-01T01:11:21.937Z,11.50
2018-09-01T01:13:50.453Z,11.50
2018-09-01T01:16:22.908Z,11.50
2018-09-01T01:18:51.410Z,11.50
2018-09-01T01:21:24.671Z,11.50
2018-09-01T01:23:53.246Z,11.50
2018-09-01T01:26:21.776Z,11.40
2018-09-01T01:28:53.295Z,11.40
2018-09-01T01:31:26.039Z,11.40
2018-09-01T01:33:58.747Z,11.40
2018-09-01T01:36:27.284Z,11.50
2018-09-01T01:38:55.829Z,11.40
2018-09-01T01:41:27.283Z,11.50
2018-09-01T01:43:55.869Z,11.60
2018-09-01T01:46:24.409Z,11.60
2018-09-01T01:48:57.666Z,11.80
2018-09-01T01:51:26.208Z,11.90
2018-09-01T01:53:54.797Z,11.90
2018-09-01T01:56:26.286Z,11.90
2018-09-01T01:58:54.799Z,11.90
2018-09-01T02:01:23.368Z,11.90
2018-09-01T02:03:59.409Z,11.80
2018-09-01T02:06:28.674Z,11.90
2018-09-01T02:09:01.198Z,11.90
2018-09-01T02:11:29.735Z,11.90
2018-09-01T02:13:58.253Z,11.90
2018-09-01T02:16:30.725Z,11.70
2018-09-01T02:18:59.247Z,11.50
2018-09-01T02:21:27.810Z,11.60
2018-09-01T02:23:59.368Z,11.60
2018-09-01T02:26:27.883Z,11.50
2018-09-01T02:28:56.411Z,11.40
2018-09-01T02:31:32.394Z,11.30
2018-09-01T02:34:01.019Z,11.20
2018-09-01T02:36:29.525Z,11.20
2018-09-01T02:39:01.894Z,11.30
2018-09-01T02:41:30.403Z,11.20
2018-09-01T02:44:02.800Z,11.10
2018-09-01T02:46:31.298Z,11.10
2018-09-01T02:49:03.774Z,11.10
2018-09-01T02:51:32.307Z,11.10
2018-09-01T02:54:04.668Z,11.20
2018-09-01T02:56:33.195Z,11.10
2018-09-01T02:59:05.514Z,10.90
2018-09-01T03:01:36.601Z,10.80
2018-09-01T03:04:09.940Z,10.70
2018-09-01T03:07:01.281Z,10.60
2018-09-01T03:09:40.787Z,10.60
2018-09-01T03:12:16.556Z,10.60
2018-09-01T03:14:48.838Z,10.60
2018-09-01T03:17:17.457Z,10.70
2018-09-01T03:19:49.756Z,10.70
2018-09-01T03:22:18.343Z,10.80
2018-09-01T03:24:46.868Z,10.80
2018-09-01T03:27:18.397Z,10.80
2018-09-01T03:29:46.887Z,10.80
2018-09-01T03:32:22.846Z,10.80
2018-09-01T03:34:51.410Z,10.80
2018-09-01T03:37:23.717Z,10.80
2018-09-01T03:39:52.223Z,10.80
2018-09-01T03:42:24.637Z,10.80
2018-09-01T03:44:53.163Z,10.80
2018-09-01T03:47:21.748Z,10.70
2018-09-01T03:49:53.177Z,10.70
2018-09-01T03:52:21.668Z,10.70
2018-09-01T03:54:54.997Z,10.70
2018-09-01T03:57:23.499Z,10.60
2018-09-01T03:59:55.955Z,10.60
2018-09-01T04:02:24.479Z,10.50
2018-09-01T04:04:56.789Z,10.40
2018-09-01T04:07:25.294Z,10.30
2018-09-01T04:09:53.792Z,10.30
2018-09-01T04:12:25.416Z,10.30
2018-09-01T04:14:53.916Z,10.30
2018-09-01T04:17:22.408Z,10.20
2018-09-01T04:19:58.458Z,10.20
2018-09-01T04:22:26.966Z,10.30
2018-09-01T04:24:59.424Z,10.20
2018-09-01T04:27:27.926Z,10.10
2018-09-01T04:29:56.497Z,10.10
2018-09-01T04:32:32.456Z,10.00
2018-09-01T04:35:00.965Z,9.90
2018-09-01T04:37:29.496Z,9.80
2018-09-01T04:40:02.007Z,9.90
2018-09-01T04:42:30.551Z,9.90
2018-09-01T04:45:02.858Z,9.90
2018-09-01T04:47:31.421Z,9.90
2018-09-01T04:50:03.716Z,10.00
2018-09-01T04:52:32.228Z,10.00
2018-09-01T04:55:00.805Z,10.00
2018-09-01T04:57:29.592Z,10.00
2018-09-01T04:59:58.115Z,10.00
2018-09-01T05:02:29.628Z,10.00
2018-09-01T05:04:58.138Z,10.10
2018-09-01T05:07:30.481Z,10.10
2018-09-01T05:09:59.039Z,10.10
2018-09-01T05:12:27.532Z,10.10
2018-09-01T05:15:00.050Z,10.10
2018-09-01T05:17:28.602Z,10.20
2018-09-01T05:20:00.909Z,10.20
2018-09-01T05:22:29.436Z,10.30
2018-09-01T05:25:01.712Z,10.30
2018-09-01T05:27:30.598Z,10.40
2018-09-01T05:30:02.667Z,10.40
2018-09-01T05:32:35.219Z,10.50
2018-09-01T05:35:08.004Z,10.50
2018-09-01T05:37:36.571Z,10.60
2018-09-01T05:40:09.783Z,10.60
2018-09-01T05:42:38.327Z,10.70
2018-09-01T05:45:06.976Z,10.80
2018-09-01T05:47:38.516Z,11.00
2018-09-01T05:50:07.113Z,11.10
2018-09-01T05:52:39.288Z,11.30
2018-09-01T05:55:07.865Z,11.50
2018-09-01T05:57:36.370Z,11.70
2018-09-01T06:00:08.858Z,11.80
2018-09-01T06:02:37.383Z,11.90
2018-09-01T06:05:10.580Z,12.00
2018-09-01T06:07:39.159Z,12.10
2018-09-01T06:10:07.754Z,12.20
2018-09-01T06:12:40.178Z,12.30
2018-09-01T06:15:08.871Z,12.40
2018-09-01T06:17:41.987Z,12.60
2018-09-01T06:20:10.518Z,12.70
2018-09-01T06:22:42.737Z,12.90
2018-09-01T06:25:11.351Z,13.00
2018-09-01T06:27:46.413Z,13.10
2018-09-01T06:30:26.323Z,13.30
2018-09-01T06:33:01.901Z,13.40
2018-09-01T06:35:30.453Z,13.50
2018-09-01T06:38:02.660Z,13.60
2018-09-01T06:40:31.251Z,13.70
2018-09-01T06:42:59.843Z,13.80
2018-09-01T06:45:32.143Z,13.90
2018-09-01T06:48:00.844Z,14.10
2018-09-01T06:50:33.995Z,14.40
2018-09-01T06:53:03.396Z,14.60
2018-09-01T06:55:34.845Z,14.80
2018-09-01T06:58:03.470Z,15.10
2018-09-01T07:00:35.738Z,15.30
2018-09-01T07:03:04.361Z,15.40
2018-09-01T07:05:36.576Z,15.60
2018-09-01T07:08:05.763Z,15.90
2018-09-01T07:10:37.438Z,16.20
2018-09-01T07:13:06.078Z,16.50
2018-09-01T07:15:38.360Z,16.70
2018-09-01T07:18:07.814Z,16.90
2018-09-01T07:20:41.042Z,17.00
2018-09-01T07:23:09.624Z,17.10
2018-09-01T07:25:41.883Z,17.50
2018-09-01T07:28:10.435Z,17.50
2018-09-01T07:30:39.006Z,17.80
2018-09-01T07:33:14.980Z,18.20
2018-09-01T07:35:43.476Z,18.50
2018-09-01T07:38:15.932Z,18.90
2018-09-01T07:40:44.396Z,19.10
2018-09-01T07:43:12.944Z,19.10
2018-09-01T07:45:44.507Z,19.30
2018-09-01T07:48:12.990Z,19.10
2018-09-01T07:50:41.488Z,19.30
2018-09-01T07:53:13.935Z,19.60
2018-09-01T07:55:42.377Z,19.70
2018-09-01T07:58:14.873Z,19.90
2018-09-01T08:00:43.939Z,20.30
2018-09-01T08:03:15.726Z,20.50
2018-09-01T08:05:44.178Z,20.60
2018-09-01T08:08:12.610Z,20.70
2018-09-01T08:10:44.427Z,21.10
2018-09-01T08:13:12.951Z,21.00
2018-09-01T08:15:41.405Z,21.20
2018-09-01T08:18:13.813Z,21.50
2018-09-01T08:20:42.357Z,21.20
2018-09-01T08:23:10.958Z,21.60
2018-09-01T08:25:42.483Z,21.90
2018-09-01T08:28:11.066Z,21.70
2018-09-01T08:30:43.329Z,22.20
2018-09-01T08:33:18.954Z,21.40
2018-09-01T08:35:50.537Z,22.00
2018-09-01T08:38:19.076Z,22.50
2018-09-01T08:40:47.630Z,22.60
2018-09-01T08:43:20.043Z,23.00
2018-09-01T08:45:48.801Z,23.30
2018-09-01T08:48:21.004Z,23.50
2018-09-01T08:50:49.544Z,23.40
2018-09-01T08:53:21.788Z,23.70
2018-09-01T08:55:50.334Z,24.00
2018-09-01T08:58:22.777Z,24.20
2018-09-01T09:00:51.377Z,24.10
2018-09-01T09:03:23.549Z,24.30
2018-09-01T09:05:52.071Z,24.00
2018-09-01T09:08:20.584Z,24.30
2018-09-01T09:10:53.069Z,24.50
2018-09-01T09:13:21.612Z,24.60
2018-09-01T09:15:53.933Z,24.60
2018-09-01T09:18:22.486Z,24.50
2018-09-01T09:20:51.028Z,24.70
2018-09-01T09:23:23.443Z,24.20
2018-09-01T09:25:52.013Z,25.00
2018-09-01T09:28:20.556Z,25.50
2018-09-01T09:30:53.058Z,25.70
2018-09-01T09:33:24.711Z,25.00
2018-09-01T09:35:56.575Z,25.20
2018-09-01T09:38:25.131Z,25.90
2018-09-01T09:40:53.617Z,26.50
2018-09-01T09:43:27.043Z,26.80
2018-09-01T09:45:55.617Z,26.90
2018-09-01T09:48:27.889Z,26.50
2018-09-01T09:50:56.459Z,26.30
2018-09-01T09:53:24.970Z,26.20
2018-09-01T09:55:56.506Z,25.50
2018-09-01T09:58:25.214Z,25.00
2018-09-01T10:01:01.016Z,24.60
2018-09-01T10:03:29.525Z,24.80
2018-09-01T10:06:01.812Z,25.70
2018-09-01T10:08:30.391Z,26.30
2018-09-01T10:10:58.972Z,26.60
2018-09-01T10:13:34.738Z,26.00
2018-09-01T10:16:10.591Z,25.90
2018-09-01T10:18:46.548Z,25.40
2018-09-01T10:21:15.109Z,25.00
2018-09-01T10:23:46.691Z,24.90
2018-09-01T10:26:15.218Z,24.70
2018-09-01T10:28:47.565Z,25.60
2018-09-01T10:31:16.088Z,25.40
2018-09-01T10:33:52.120Z,25.90
2018-09-01T10:36:20.704Z,26.00
2018-09-01T10:38:52.975Z,26.20
2018-09-01T10:41:21.526Z,27.00
2018-09-01T10:43:53.870Z,27.50
2018-09-01T10:46:22.445Z,27.40
2018-09-01T10:48:54.665Z,27.30
2018-09-01T10:51:23.231Z,27.50
2018-09-01T10:53:51.716Z,28.10
2018-09-01T10:56:24.185Z,27.90
2018-09-01T10:58:52.731Z,28.30
2018-09-01T11:01:25.098Z,28.60
2018-09-01T11:03:53.553Z,28.00
2018-09-01T11:06:26.133Z,27.30
2018-09-01T11:08:54.668Z,26.60
2018-09-01T11:11:26.801Z,26.20
2018-09-01T11:13:55.237Z,26.10
2018-09-01T11:16:23.685Z,26.10
2018-09-01T11:18:55.439Z,26.10
2018-09-01T11:21:23.905Z,26.00
2018-09-01T11:23:52.444Z,26.00
2018-09-01T11:26:24.971Z,25.60
2018-09-01T11:28:53.578Z,25.30
2018-09-01T11:31:22.026Z,25.80
2018-09-01T11:33:58.117Z,25.80
2018-09-01T11:36:26.714Z,26.50
2018-09-01T11:38:59.005Z,26.90
2018-09-01T11:41:27.501Z,27.80
2018-09-01T11:43:55.985Z,28.50
2018-09-01T11:46:27.515Z,28.20
2018-09-01T11:48:55.957Z,27.50
2018-09-01T11:51:24.469Z,27.00
2018-09-01T11:53:57.061Z,27.30
2018-09-01T11:56:25.669Z,28.10
2018-09-01T11:58:54.386Z,28.30
2018-09-01T12:01:25.706Z,27.60
2018-09-01T12:03:54.266Z,27.60
2018-09-01T12:06:26.530Z,27.30
2018-09-01T12:08:55.207Z,27.70
2018-09-01T12:11:23.687Z,28.40
2018-09-01T12:13:56.144Z,28.80
2018-09-01T12:16:24.842Z,28.40
2018-09-01T12:18:56.982Z,27.90
2018-09-01T12:21:25.630Z,28.20
2018-09-01T12:23:57.864Z,28.10
2018-09-01T12:26:26.410Z,27.90
2018-09-01T12:28:54.966Z,27.60
2018-09-01T12:31:28.355Z,27.20
2018-09-01T12:34:00.473Z,26.90
2018-09-01T12:36:32.769Z,26.70
2018-09-01T12:39:01.692Z,26.50
2018-09-01T12:41:39.031Z,26.50
2018-09-01T12:44:07.943Z,26.30
2018-09-01T12:46:39.979Z,25.90
2018-09-01T12:49:08.522Z,25.40
2018-09-01T12:51:37.500Z,25.60
2018-09-01T12:54:10.390Z,25.80
2018-09-01T12:56:38.963Z,26.10
2018-09-01T12:59:12.173Z,26.00
2018-09-01T13:01:40.826Z,26.20
2018-09-01T13:04:12.982Z,26.00
2018-09-01T13:06:42.254Z,26.20
2018-09-01T13:09:13.856Z,26.30
2018-09-01T13:11:49.736Z,26.30
2018-09-01T13:14:22.079Z,26.30
2018-09-01T13:16:52.534Z,26.30
2018-09-01T13:19:25.204Z,26.20
2018-09-01T13:21:54.045Z,25.80
2018-09-01T13:24:25.548Z,26.00
2018-09-01T13:26:54.189Z,26.20
2018-09-01T13:29:27.525Z,25.80
2018-09-01T13:31:56.165Z,25.80
2018-09-01T13:34:31.049Z,26.10
2018-09-01T13:36:59.814Z,26.00
2018-09-01T13:39:31.828Z,25.80
2018-09-01T13:42:00.328Z,25.90
2018-09-01T13:44:28.825Z,26.00
2018-09-01T13:47:02.256Z,25.80
2018-09-01T13:49:30.861Z,26.00
2018-09-01T13:52:03.170Z,25.60
2018-09-01T13:54:47.131Z,25.80
2018-09-01T13:57:21.454Z,25.90
2018-09-01T13:59:50.944Z,25.70
2018-09-01T14:02:23.052Z,25.80
2018-09-01T14:04:51.575Z,25.70
2018-09-01T14:07:20.152Z,25.40
2018-09-01T14:09:51.621Z,25.70
2018-09-01T14:12:20.740Z,25.60
2018-09-01T14:14:53.691Z,25.60
2018-09-01T14:17:22.340Z,25.70
2018-09-01T14:19:56.820Z,25.70
2018-09-01T14:22:26.936Z,25.70
2018-09-01T14:24:58.800Z,25.40
2018-09-01T14:27:27.619Z,25.50
2018-09-01T14:29:59.635Z,25.60
2018-09-01T14:32:28.153Z,25.70
2018-09-01T14:35:04.167Z,25.70
2018-09-01T14:37:32.666Z,25.10
2018-09-01T14:40:01.241Z,25.10
2018-09-01T14:42:32.837Z,25.20
2018-09-01T14:45:01.405Z,25.20
2018-09-01T14:47:29.930Z,25.30
2018-09-01T14:50:03.193Z,25.30
2018-09-01T14:52:31.810Z,25.30
2018-09-01T14:55:04.046Z,25.30
2018-09-01T14:57:32.604Z,25.10
2018-09-01T15:00:04.909Z,25.20
2018-09-01T15:02:33.469Z,25.20
2018-09-01T15:05:02.056Z,25.10
2018-09-01T15:07:34.481Z,25.10
2018-09-01T15:10:03.050Z,25.00
2018-09-01T15:12:36.323Z,25.00
2018-09-01T15:15:04.989Z,24.80
2018-09-01T15:17:37.072Z,24.70
2018-09-01T15:20:05.850Z,24.60
2018-09-01T15:22:37.996Z,24.60
2018-09-01T15:25:06.606Z,24.40
2018-09-01T15:27:35.127Z,24.20
2018-09-01T15:30:06.624Z,24.30
2018-09-01T15:32:35.269Z,24.40
2018-09-01T15:35:10.123Z,24.30
2018-09-01T15:37:39.002Z,24.30
2018-09-01T15:40:11.027Z,24.20
2018-09-01T15:42:39.572Z,24.10
2018-09-01T15:45:08.143Z,24.00
2018-09-01T15:47:41.447Z,24.00
2018-09-01T15:50:10.068Z,23.80
2018-09-01T15:52:43.349Z,23.70
2018-09-01T15:55:11.939Z,23.50
2018-09-01T15:57:44.214Z,23.40
2018-09-01T16:00:13.563Z,23.40
2018-09-01T16:02:46.915Z,23.40
2018-09-01T16:05:15.579Z,23.30
2018-09-01T16:07:47.786Z,23.10
2018-09-01T16:10:16.336Z,22.90
2018-09-01T16:12:49.554Z,22.70
2018-09-01T16:15:18.207Z,22.60
2018-09-01T16:17:51.311Z,22.50
2018-09-01T16:20:19.863Z,22.40
2018-09-01T16:22:52.205Z,22.30
2018-09-01T16:25:20.782Z,22.30
2018-09-01T16:27:53.023Z,22.20
2018-09-01T16:30:21.588Z,22.10
2018-09-01T16:32:50.161Z,22.00
2018-09-01T16:35:37.035Z,22.00
2018-09-01T16:38:21.248Z,22.00
2018-09-01T16:41:11.464Z,22.00
2018-09-01T16:43:54.919Z,21.90
2018-09-01T16:46:42.307Z,21.90
2018-09-01T16:49:26.354Z,21.80
2018-09-01T16:52:13.069Z,21.80
2018-09-01T16:54:57.230Z,21.70
2018-09-01T16:57:43.878Z,21.80
2018-09-01T17:00:27.602Z,21.70
2018-09-01T17:03:16.453Z,21.60
2018-09-01T17:06:00.420Z,21.40
2018-09-01T17:08:48.114Z,21.30
2018-09-01T17:11:31.419Z,21.30
2018-09-01T17:14:18.879Z,21.20
2018-09-01T17:17:03.507Z,21.10
2018-09-01T17:19:51.539Z,20.90
2018-09-01T17:22:35.793Z,20.90
2018-09-01T17:25:22.388Z,20.70
2018-09-01T17:28:06.100Z,20.50
2018-09-01T17:30:56.646Z,20.50
2018-09-01T17:33:40.394Z,20.40
2018-09-01T17:36:28.376Z,20.20
2018-09-01T17:39:13.019Z,20.10
2018-09-01T17:42:00.054Z,20.00
2018-09-01T17:44:44.213Z,19.80
2018-09-01T17:47:30.913Z,19.70
2018-09-01T17:50:14.664Z,19.60
2018-09-01T17:53:00.718Z,19.40
2018-09-01T17:55:44.409Z,19.30
2018-09-01T17:58:32.388Z,19.10
2018-09-01T18:01:17.245Z,19.00
2018-09-01T18:04:04.985Z,18.80
2018-09-01T18:06:48.893Z,18.70
2018-09-01T18:09:35.813Z,18.60
2018-09-01T18:12:19.275Z,18.50
2018-09-01T18:15:07.477Z,18.30
2018-09-01T18:17:51.254Z,18.20
2018-09-01T18:20:38.249Z,18.10
2018-09-01T18:23:21.986Z,18.00
2018-09-01T18:26:09.066Z,17.90
2018-09-01T18:28:53.144Z,17.70
2018-09-01T18:31:39.927Z,17.80
2018-09-01T18:34:24.916Z,17.90
2018-09-01T18:37:13.471Z,17.90
2018-09-01T18:39:57.286Z,17.80
2018-09-01T18:42:44.156Z,17.80
2018-09-01T18:45:27.916Z,17.80
2018-09-01T18:48:14.984Z,17.80
2018-09-01T18:50:58.814Z,17.70
2018-09-01T18:53:45.715Z,17.70
2018-09-01T18:56:29.454Z,17.70
2018-09-01T18:59:17.405Z,17.70
2018-09-01T19:02:01.024Z,17.70
2018-09-01T19:04:47.519Z,17.70
2018-09-01T19:07:31.703Z,17.70
2018-09-01T19:10:19.021Z,17.60
2018-09-01T19:13:02.688Z,17.50
2018-09-01T19:15:50.293Z,17.50
2018-09-01T19:18:33.843Z,17.50
2018-09-01T19:21:21.449Z,17.50
2018-09-01T19:24:05.077Z,17.40
2018-09-01T19:26:52.201Z,17.50
2018-09-01T19:29:36.411Z,17.50
2018-09-01T19:32:22.981Z,17.40
2018-09-01T19:35:06.753Z,17.40
2018-09-01T19:37:53.834Z,17.50
2018-09-01T19:40:37.276Z,17.40
2018-09-01T19:43:24.569Z,17.40
2018-09-01T19:46:08.458Z,17.40
2018-09-01T19:48:56.312Z,17.30
2018-09-01T19:51:40.524Z,17.30
2018-09-01T19:54:27.119Z,17.20
2018-09-01T19:57:11.190Z,17.20
2018-09-01T19:59:58.761Z,17.10
2018-09-01T20:02:42.358Z,17.00
2018-09-01T20:05:30.547Z,17.00
2018-09-01T20:08:14.901Z,16.90
2018-09-01T20:11:01.235Z,16.90
2018-09-01T20:13:45.325Z,16.80
2018-09-01T20:16:32.004Z,16.80
2018-09-01T20:19:15.424Z,16.70
2018-09-01T20:22:02.213Z,16.80
2018-09-01T20:24:45.416Z,16.80
2018-09-01T20:27:31.739Z,16.80
2018-09-01T20:30:16.180Z,16.80
2018-09-01T20:32:55.319Z,16.80
2018-09-01T20:35:30.220Z,16.80
2018-09-01T20:38:02.593Z,16.80
2018-09-01T20:40:31.122Z,16.80
2018-09-01T20:43:04.348Z,16.70
2018-09-01T20:45:32.884Z,16.70
2018-09-01T20:48:05.144Z,16.80
2018-09-01T20:50:33.713Z,16.80
2018-09-01T20:53:02.336Z,16.80
2018-09-01T20:55:33.786Z,16.80
2018-09-01T20:58:02.922Z,16.70
2018-09-01T21:00:36.489Z,16.70
2018-09-01T21:03:05.007Z,16.70
2018-09-01T21:05:37.306Z,16.70
2018-09-01T21:08:05.876Z,16.70
2018-09-01T21:10:34.419Z,16.70
2018-09-01T21:13:05.939Z,16.70
2018-09-01T21:15:34.543Z,16.70
2018-09-01T21:18:06.856Z,16.70
2018-09-01T21:20:35.416Z,16.70
2018-09-01T21:23:08.612Z,16.60
2018-09-01T21:25:37.149Z,16.60
2018-09-01T21:28:09.522Z,16.60
2018-09-01T21:30:38.051Z,16.60
2018-09-01T21:33:13.952Z,16.60
2018-09-01T21:35:42.532Z,16.50
2018-09-01T21:38:14.822Z,16.50
2018-09-01T21:40:43.386Z,16.40
2018-09-01T21:43:11.938Z,16.40
2018-09-01T21:45:44.442Z,16.30
2018-09-01T21:48:13.117Z,16.30
2018-09-01T21:50:45.374Z,16.30
2018-09-01T21:53:13.931Z,16.30
2018-09-01T21:55:46.192Z,16.20
2018-09-01T21:58:15.350Z,16.20
2018-09-01T22:00:53.326Z,16.20
2018-09-01T22:03:22.695Z,16.20
2018-09-01T22:05:54.233Z,16.20
2018-09-01T22:08:23.331Z,16.10
2018-09-01T22:10:55.106Z,16.10
2018-09-01T22:13:23.697Z,16.20
2018-09-01T22:15:56.068Z,16.10
2018-09-01T22:18:25.829Z,16.10
2018-09-01T22:20:58.744Z,16.10
2018-09-01T22:23:27.328Z,16.00
2018-09-01T22:26:00.526Z,16.00
2018-09-01T22:28:29.485Z,16.00
2018-09-01T22:31:01.316Z,15.90
2018-09-01T22:33:33.126Z,16.00
2018-09-01T22:36:04.938Z,15.90
2018-09-01T22:38:33.632Z,16.00
2018-09-01T22:41:05.894Z,15.90
2018-09-01T22:43:34.424Z,15.90
2018-09-01T22:46:07.697Z,15.90
2018-09-01T22:48:36.203Z,15.90
2018-09-01T22:51:08.546Z,15.90
2018-09-01T22:53:37.038Z,15.90
2018-09-01T22:56:09.373Z,15.80
2018-09-01T22:58:37.918Z,15.80
2018-09-01T23:01:10.204Z,15.80
2018-09-01T23:03:38.850Z,15.70
2018-09-01T23:06:07.412Z,15.60
2018-09-01T23:08:38.852Z,15.60
2018-09-01T23:11:07.463Z,15.60
2018-09-01T23:13:36.032Z,15.60
2018-09-01T23:16:07.482Z,15.60
2018-09-01T23:18:36.000Z,15.70
2018-09-01T23:21:04.576Z,15.60
2018-09-01T23:23:36.947Z,15.70
2018-09-01T23:26:05.501Z,15.70
2018-09-01T23:28:34.110Z,15.70
2018-09-01T23:31:06.478Z,15.70
2018-09-01T23:33:38.220Z,15.60
2018-09-01T23:36:10.036Z,15.60
2018-09-01T23:38:38.552Z,15.60
2018-09-01T23:41:10.893Z,15.50
2018-09-01T23:43:39.425Z,15.50
2018-09-01T23:46:12.761Z,15.50
2018-09-01T23:48:41.329Z,15.50
2018-09-01T23:51:13.625Z,15.40
2018-09-01T23:53:42.160Z,15.40
2018-09-01T23:56:14.447Z,15.40
2018-09-01T23:58:42.986Z,15.30
